sensor_id;sensor_type;location;lat;lon;timestamp;P1;durP1;ratioP1;P2;durP2;ratioP2
57339;SDS011;43174;50.930;18.170;2023-06-04T00:06:25;3.40;;;3.20;;
57339;SDS011;43174;50.930;18.170;2023-06-04T00:16:07;4.60;;;4.40;;
57339;SDS011;43174;50.930;18.170;2023-06-04T00:25:51;4.20;;;3.90;;
57339;SDS011;43174;50.930;18.170;2023-06-04T00:35:33;5.20;;;4.90;;
57339;SDS011;43174;50.930;18.170;2023-06-04T00:45:16;3.50;;;2.80;;
57339;SDS011;43174;50.930;18.170;2023-06-04T00:55:01;2.30;;;2.20;;
57339;SDS011;43174;50.930;18.170;2023-06-04T01:05:09;8.80;;;4.70;;
57339;SDS011;43174;50.930;18.170;2023-06-04T01:14:54;4.80;;;3.00;;
57339;SDS011;43174;50.930;18.170;2023-06-04T01:24:48;4.00;;;3.20;;
57339;SDS011;43174;50.930;18.170;2023-06-04T01:34:45;3.80;;;3.60;;
57339;SDS011;43174;50.930;18.170;2023-06-04T01:44:29;4.10;;;3.80;;
57339;SDS011;43174;50.930;18.170;2023-06-04T01:54:12;4.20;;;3.70;;
57339;SDS011;43174;50.930;18.170;2023-06-04T02:03:55;4.00;;;3.80;;
57339;SDS011;43174;50.930;18.170;2023-06-04T02:13:38;4.10;;;3.90;;
57339;SDS011;43174;50.930;18.170;2023-06-04T02:23:21;4.60;;;4.40;;
57339;SDS011;43174;50.930;18.170;2023-06-04T02:33:04;2.50;;;2.40;;
57339;SDS011;43174;50.930;18.170;2023-06-04T02:42:49;3.10;;;3.00;;
57339;SDS011;43174;50.930;18.170;2023-06-04T02:52:31;9.10;;;4.70;;
57339;SDS011;43174;50.930;18.170;2023-06-04T03:02:17;8.90;;;5.60;;
57339;SDS011;43174;50.930;18.170;2023-06-04T03:12:02;5.80;;;5.50;;
57339;SDS011;43174;50.930;18.170;2023-06-04T03:21:52;6.30;;;6.00;;
57339;SDS011;43174;50.930;18.170;2023-06-04T03:31:37;4.00;;;3.70;;
57339;SDS011;43174;50.930;18.170;2023-06-04T03:41:22;3.60;;;3.30;;
57339;SDS011;43174;50.930;18.170;2023-06-04T03:51:05;1.30;;;1.30;;
57339;SDS011;43174;50.930;18.170;2023-06-04T04:00:47;3.90;;;3.60;;
57339;SDS011;43174;50.930;18.170;2023-06-04T04:10:31;5.00;;;4.70;;
57339;SDS011;43174;50.930;18.170;2023-06-04T04:20:15;5.80;;;5.20;;
57339;SDS011;43174;50.930;18.170;2023-06-04T04:30:05;4.00;;;3.70;;
57339;SDS011;43174;50.930;18.170;2023-06-04T04:39:49;11.80;;;5.10;;
57339;SDS011;43174;50.930;18.170;2023-06-04T04:49:38;5.70;;;5.30;;
57339;SDS011;43174;50.930;18.170;2023-06-04T04:59:21;5.10;;;4.70;;
57339;SDS011;43174;50.930;18.170;2023-06-04T05:09:03;4.30;;;3.90;;
57339;SDS011;43174;50.930;18.170;2023-06-04T05:18:48;2.30;;;2.20;;
57339;SDS011;43174;50.930;18.170;2023-06-04T05:28:39;5.10;;;4.60;;
57339;SDS011;43174;50.930;18.170;2023-06-04T05:38:25;4.70;;;4.40;;
57339;SDS011;43174;50.930;18.170;2023-06-04T05:48:09;3.30;;;3.10;;
57339;SDS011;43174;50.930;18.170;2023-06-04T05:57:51;5.90;;;4.00;;
57339;SDS011;43174;50.930;18.170;2023-06-04T06:07:35;3.20;;;3.00;;
57339;SDS011;43174;50.930;18.170;2023-06-04T06:17:18;3.30;;;2.60;;
57339;SDS011;43174;50.930;18.170;2023-06-04T06:27:01;4.10;;;3.30;;
57339;SDS011;43174;50.930;18.170;2023-06-04T06:36:45;2.30;;;1.70;;
57339;SDS011;43174;50.930;18.170;2023-06-04T06:46:29;2.50;;;1.70;;
57339;SDS011;43174;50.930;18.170;2023-06-04T06:56:13;3.30;;;1.20;;
57339;SDS011;43174;50.930;18.170;2023-06-04T07:05:57;4.50;;;1.10;;
57339;SDS011;43174;50.930;18.170;2023-06-04T07:15:42;1.50;;;1.40;;
57339;SDS011;43174;50.930;18.170;2023-06-04T07:25:24;1.90;;;0.90;;
57339;SDS011;43174;50.930;18.170;2023-06-04T07:35:08;2.10;;;1.40;;
57339;SDS011;43174;50.930;18.170;2023-06-04T07:44:53;2.20;;;1.60;;
57339;SDS011;43174;50.930;18.170;2023-06-04T07:47:18;3.60;;;1.20;;
57339;SDS011;43174;50.930;18.170;2023-06-04T07:49:45;3.40;;;1.30;;
57339;SDS011;43174;50.930;18.170;2023-06-04T07:59:29;1.50;;;1.10;;
57339;SDS011;43174;50.930;18.170;2023-06-04T08:09:12;1.90;;;0.60;;
57339;SDS011;43174;50.930;18.170;2023-06-04T08:18:55;2.10;;;1.00;;
57339;SDS011;43174;50.930;18.170;2023-06-04T08:28:40;1.00;;;1.00;;
57339;SDS011;43174;50.930;18.170;2023-06-04T08:35:57;4.30;;;1.20;;
57339;SDS011;43174;50.930;18.170;2023-06-04T08:45:39;2.50;;;0.70;;
57339;SDS011;43174;50.930;18.170;2023-06-04T08:55:23;0.20;;;0.20;;
57339;SDS011;43174;50.930;18.170;2023-06-04T08:57:49;4.50;;;1.00;;
57339;SDS011;43174;50.930;18.170;2023-06-04T09:07:38;0.40;;;0.40;;
57339;SDS011;43174;50.930;18.170;2023-06-04T09:17:24;0.40;;;0.40;;
57339;SDS011;43174;50.930;18.170;2023-06-04T09:27:10;0.70;;;0.70;;
57339;SDS011;43174;50.930;18.170;2023-06-04T09:36:54;1.10;;;0.50;;
57339;SDS011;43174;50.930;18.170;2023-06-04T09:46:37;0.70;;;0.50;;
57339;SDS011;43174;50.930;18.170;2023-06-04T09:56:21;0.90;;;0.60;;
57339;SDS011;43174;50.930;18.170;2023-06-04T10:06:03;1.30;;;0.70;;
57339;SDS011;43174;50.930;18.170;2023-06-04T10:15:46;0.90;;;0.30;;
57339;SDS011;43174;50.930;18.170;2023-06-04T10:25:29;1.50;;;0.80;;
57339;SDS011;43174;50.930;18.170;2023-06-04T10:35:12;0.60;;;0.60;;
57339;SDS011;43174;50.930;18.170;2023-06-04T10:44:56;0.50;;;0.50;;
57339;SDS011;43174;50.930;18.170;2023-06-04T10:54:41;0.70;;;0.70;;
57339;SDS011;43174;50.930;18.170;2023-06-04T11:04:25;2.10;;;0.50;;
57339;SDS011;43174;50.930;18.170;2023-06-04T11:14:09;0.40;;;0.40;;
57339;SDS011;43174;50.930;18.170;2023-06-04T11:23:59;0.50;;;0.50;;
57339;SDS011;43174;50.930;18.170;2023-06-04T11:33:43;1.70;;;0.60;;
57339;SDS011;43174;50.930;18.170;2023-06-04T11:43:26;1.30;;;1.00;;
57339;SDS011;43174;50.930;18.170;2023-06-04T11:50:43;3.20;;;0.80;;
57339;SDS011;43174;50.930;18.170;2023-06-04T12:00:25;0.70;;;0.70;;
57339;SDS011;43174;50.930;18.170;2023-06-04T12:10:12;0.60;;;0.60;;
57339;SDS011;43174;50.930;18.170;2023-06-04T12:19:58;12.80;;;0.90;;
57339;SDS011;43174;50.930;18.170;2023-06-04T12:29:53;13.00;;;0.60;;
57339;SDS011;43174;50.930;18.170;2023-06-04T12:39:36;0.40;;;0.30;;
57339;SDS011;43174;50.930;18.170;2023-06-04T12:49:19;0.40;;;0.40;;
57339;SDS011;43174;50.930;18.170;2023-06-04T12:59:02;0.70;;;0.40;;
57339;SDS011;43174;50.930;18.170;2023-06-04T13:08:46;1.10;;;0.80;;
57339;SDS011;43174;50.930;18.170;2023-06-04T13:18:29;0.40;;;0.40;;
57339;SDS011;43174;50.930;18.170;2023-06-04T13:28:12;6.00;;;0.60;;
57339;SDS011;43174;50.930;18.170;2023-06-04T13:37:54;0.60;;;0.60;;
57339;SDS011;43174;50.930;18.170;2023-06-04T13:47:39;0.30;;;0.30;;
57339;SDS011;43174;50.930;18.170;2023-06-04T13:57:24;0.40;;;0.40;;
57339;SDS011;43174;50.930;18.170;2023-06-04T14:07:06;0.70;;;0.60;;
57339;SDS011;43174;50.930;18.170;2023-06-04T14:16:48;0.80;;;0.80;;
57339;SDS011;43174;50.930;18.170;2023-06-04T14:26:31;0.50;;;0.50;;
57339;SDS011;43174;50.930;18.170;2023-06-04T14:36:13;0.90;;;0.60;;
57339;SDS011;43174;50.930;18.170;2023-06-04T14:45:55;1.60;;;0.90;;
57339;SDS011;43174;50.930;18.170;2023-06-04T14:50:46;2.60;;;0.70;;
57339;SDS011;43174;50.930;18.170;2023-06-04T15:00:31;0.60;;;0.60;;
57339;SDS011;43174;50.930;18.170;2023-06-04T15:10:15;0.60;;;0.60;;
57339;SDS011;43174;50.930;18.170;2023-06-04T15:19:57;0.90;;;0.40;;
57339;SDS011;43174;50.930;18.170;2023-06-04T15:29:41;1.80;;;0.60;;
57339;SDS011;43174;50.930;18.170;2023-06-04T15:39:23;0.60;;;0.30;;
57339;SDS011;43174;50.930;18.170;2023-06-04T15:49:05;2.50;;;0.70;;
57339;SDS011;43174;50.930;18.170;2023-06-04T15:58:51;1.90;;;1.90;;
57339;SDS011;43174;50.930;18.170;2023-06-04T16:08:33;2.20;;;0.80;;
57339;SDS011;43174;50.930;18.170;2023-06-04T16:18:17;0.30;;;0.30;;
57339;SDS011;43174;50.930;18.170;2023-06-04T16:28:01;0.50;;;0.50;;
57339;SDS011;43174;50.930;18.170;2023-06-04T16:37:44;0.80;;;0.70;;
57339;SDS011;43174;50.930;18.170;2023-06-04T16:47:26;1.40;;;1.30;;
57339;SDS011;43174;50.930;18.170;2023-06-04T16:57:08;0.90;;;0.90;;
57339;SDS011;43174;50.930;18.170;2023-06-04T17:06:50;0.10;;;0.10;;
57339;SDS011;43174;50.930;18.170;2023-06-04T17:16:34;1.00;;;0.50;;
57339;SDS011;43174;50.930;18.170;2023-06-04T17:26:16;0.40;;;0.40;;
57339;SDS011;43174;50.930;18.170;2023-06-04T17:35:57;1.20;;;1.10;;
57339;SDS011;43174;50.930;18.170;2023-06-04T17:45:40;2.20;;;1.40;;
57339;SDS011;43174;50.930;18.170;2023-06-04T17:55:23;0.60;;;0.60;;
57339;SDS011;43174;50.930;18.170;2023-06-04T18:05:06;0.50;;;0.50;;
57339;SDS011;43174;50.930;18.170;2023-06-04T18:14:48;1.20;;;1.20;;
57339;SDS011;43174;50.930;18.170;2023-06-04T18:24:32;0.60;;;0.60;;
57339;SDS011;43174;50.930;18.170;2023-06-04T18:34:16;9.80;;;0.70;;
57339;SDS011;43174;50.930;18.170;2023-06-04T18:44:04;1.60;;;1.30;;
57339;SDS011;43174;50.930;18.170;2023-06-04T18:53:47;2.10;;;1.90;;
57339;SDS011;43174;50.930;18.170;2023-06-04T19:03:31;9.90;;;2.00;;
57339;SDS011;43174;50.930;18.170;2023-06-04T19:13:17;1.50;;;1.40;;
57339;SDS011;43174;50.930;18.170;2023-06-04T19:22:59;1.60;;;1.50;;
57339;SDS011;43174;50.930;18.170;2023-06-04T19:32:51;0.50;;;0.50;;
57339;SDS011;43174;50.930;18.170;2023-06-04T19:42:33;3.00;;;2.30;;
57339;SDS011;43174;50.930;18.170;2023-06-04T19:52:16;1.60;;;1.50;;
57339;SDS011;43174;50.930;18.170;2023-06-04T20:02:00;12.90;;;3.00;;
57339;SDS011;43174;50.930;18.170;2023-06-04T20:11:43;2.10;;;2.00;;
57339;SDS011;43174;50.930;18.170;2023-06-04T20:28:44;3.10;;;2.90;;
57339;SDS011;43174;50.930;18.170;2023-06-04T20:38:27;3.40;;;3.10;;
57339;SDS011;43174;50.930;18.170;2023-06-04T20:48:11;3.80;;;3.40;;
57339;SDS011;43174;50.930;18.170;2023-06-04T20:57:53;4.50;;;4.20;;
57339;SDS011;43174;50.930;18.170;2023-06-04T21:07:36;3.10;;;2.90;;
57339;SDS011;43174;50.930;18.170;2023-06-04T21:17:18;3.10;;;2.90;;
57339;SDS011;43174;50.930;18.170;2023-06-04T21:27:00;3.10;;;2.90;;
57339;SDS011;43174;50.930;18.170;2023-06-04T21:36:42;3.60;;;3.40;;
57339;SDS011;43174;50.930;18.170;2023-06-04T21:46:25;5.50;;;4.80;;
57339;SDS011;43174;50.930;18.170;2023-06-04T21:56:08;4.80;;;4.20;;
57339;SDS011;43174;50.930;18.170;2023-06-04T22:05:50;4.80;;;4.60;;
57339;SDS011;43174;50.930;18.170;2023-06-04T22:15:33;1.90;;;1.80;;
57339;SDS011;43174;50.930;18.170;2023-06-04T22:25:17;16.00;;;4.30;;
57339;SDS011;43174;50.930;18.170;2023-06-04T22:35:00;5.90;;;4.20;;
57339;SDS011;43174;50.930;18.170;2023-06-04T22:44:43;4.20;;;4.00;;
57339;SDS011;43174;50.930;18.170;2023-06-04T22:54:25;12.90;;;7.70;;
57339;SDS011;43174;50.930;18.170;2023-06-04T23:04:08;8.90;;;5.90;;
57339;SDS011;43174;50.930;18.170;2023-06-04T23:13:50;7.30;;;6.80;;
57339;SDS011;43174;50.930;18.170;2023-06-04T23:23:33;11.10;;;6.10;;
57339;SDS011;43174;50.930;18.170;2023-06-04T23:33:15;6.20;;;5.90;;
57339;SDS011;43174;50.930;18.170;2023-06-04T23:42:57;4.50;;;4.20;;
57339;SDS011;43174;50.930;18.170;2023-06-04T23:59:56;6.20;;;4.30;;
